This is the latest recevied weather packets stored in our database for station/object N3HBJ. If no packets are shown the sender has not sent any weather packets the latest 10 day(s).
| Time | Temp. | Humidity | Pressure | Rain* | Wind** | Luminosity | Snow |
|---|---|---|---|---|---|---|---|
| 1777368018 | 11.67° C | 61% | 1017.7 hPa | 0 mm | - | 0 W/m² | - |
| 1777367714 | 11.67° C | 61% | 1017.7 hPa | 0 mm | - | 0 W/m² | - |
| 1777364870 | 12.22° C | 63% | 1017.4 hPa | 0 mm | - | 0 W/m² | - |
| 1777363791 | 12.22° C | 62% | 1017.9 hPa | 0 mm | - | 0 W/m² | - |
| 1777360633 | 12.78° C | 63% | 1018.5 hPa | 0 mm | - | 0 W/m² | - |
| 1777360036 | 12.78° C | 63% | 1018.6 hPa | 0 mm | - | 0 W/m² | - |
| 1777359437 | 12.78° C | 63% | 1018.8 hPa | 0 mm | - | 0 W/m² | - |
| 1777359131 | 12.78° C | 63% | 1018.9 hPa | 0 mm | - | 0 W/m² | - |
| 1777357333 | 13.33° C | 62% | 1018.8 hPa | 0 mm | - | 0 W/m² | - |
| 1777357037 | 13.33° C | 62% | 1018.8 hPa | 0 mm | - | 0 W/m² | - |
| 1777355532 | 13.33° C | 62% | 1018.6 hPa | 0 mm | - | 0 W/m² | - |
| 1777353266 | 13.33° C | 61% | 1018.7 hPa | 0 mm | - | 0 W/m² | - |
| 1777352668 | 13.33° C | 60% | 1019.1 hPa | 0 mm | - | 0 W/m² | - |
| 1777349220 | 14.44° C | 57% | 1019.2 hPa | 0 mm | - | 0 W/m² | - |
| 1777347102 | 14.44° C | 57% | 1019.1 hPa | 0 mm | - | 0 W/m² | - |
| 1777345572 | 14.44° C | 58% | 1019.5 hPa | 0 mm | - | 0 W/m² | - |
| 1777343750 | 15° C | 57% | 1020.6 hPa | 0 mm | - | 0 W/m² | - |
| 1777343433 | 15° C | 57% | 1020.6 hPa | 0 mm | - | 0 W/m² | - |
| 1777342855 | 15° C | 56% | 1020.8 hPa | 0 mm | - | 0 W/m² | - |
| 1777342250 | 15.56° C | 56% | 1020.9 hPa | 0 mm | - | 0 W/m² | - |
| 1777340890 | 15° C | 56% | 1021.1 hPa | 0 mm | - | 0 W/m² | - |
| 1777339238 | 15° C | 57% | 1021 hPa | 0 mm | - | 0 W/m² | - |
| 1777337737 | 15° C | 56% | 1021.1 hPa | 0 mm | - | 0 W/m² | - |
| 1777337439 | 15° C | 55% | 1021.1 hPa | 0 mm | - | 0 W/m² | - |
| 1777335335 | 16.67° C | 49% | 1021 hPa | 0 mm | - | 0 W/m² | - |
* Rain latest hour (hover to see other rain measurements)
** Current wind speed in m/s (hover to see current wind gust speed)